Flight Track Log - Related Links

Times and Time Zones

All times are in EDT time to prevent confusion due to time zone crossing. See the SWA471 flight status page for this flight to view local times or setup timezone preferences in your user account.

Time Position Orientation Groundspeed Altitude Reporting Facility
EDT Latitude Longitude Course Direction KTS MPH feet Rate Location/Type
Tue 09:43:23 PM 39.3167 -94.7167 360° North 168 193 2,000  Level Kansas City TRACON
Tue 09:43:53 PM 39.3500 -94.7167 360° North 167 192 3,300 2,867 Climbing Kansas City TRACON
Tue 09:44:53 PM 39.3500 -94.7833 270° West 273 314 6,300 2,720 Climbing Kansas City TRACON
Tue 09:45:08 PM 39.3378 -94.7972 221° Southwest 265 305 6,700 4,216 Climbing Kansas City Center
Tue 09:46:07 PM 39.2528 -94.8225 193° South 276 318 11,500 3,492 Climbing Kansas City Center
Tue 09:47:10 PM 39.1647 -94.8481 193° South 341 392 13,800 3,049 Climbing Kansas City Center
Tue 09:48:09 PM 39.0750 -94.8733 192° South 342 394 17,700 3,073 Climbing Kansas City Center
Tue 09:49:13 PM 38.9694 -94.9036 193° South 347 399 20,100 2,516 Climbing Kansas City Center
Tue 09:50:13 PM 38.8722 -94.9311 192° South 370 426 22,900 2,479 Climbing Kansas City Center
Tue 09:51:14 PM 38.7772 -94.9578 192° South 366 421 25,100 2,066 Climbing Kansas City Center
Tue 09:52:15 PM 38.6606 -94.9894 192° South 381 438 27,100 1,935 Climbing Kansas City Center
Tue 09:53:18 PM 38.5589 -95.0197 193° South 390 449 29,100 2,129 Climbing Kansas City Center
Tue 09:54:19 PM 38.4422 -95.0511 192° South 382 440 31,500 2,066 Climbing Kansas City Center
Tue 09:55:20 PM 38.3442 -95.0789 193° South 376 433 33,300 1,650 Climbing Kansas City Center
Tue 09:56:19 PM 38.2467 -95.1050 192° South 374 430 34,800 1,328 Climbing Kansas City Center
Tue 09:57:22 PM 38.1319 -95.1389 193° South 377 434 36,000 576 Climbing Kansas City Center
Tue 09:58:24 PM 38.0358 -95.1739 196° South 375 432 36,000  Level Kansas City Center
Tue 09:59:24 PM 37.9364 -95.2081 195° South 366 421 36,000  Level Kansas City Center
Tue 10:00:25 PM 37.8372 -95.2414 195° South 367 422 36,000  Level Kansas City Center
Tue 10:01:27 PM 37.7369 -95.2769 196° South 372 428 36,000  Level Kansas City Center
Tue 10:02:27 PM 37.6361 -95.3111 195° South 375 432 36,000  Level Kansas City Center
Tue 10:03:28 PM 37.5331 -95.3447 195° South 379 436 36,000  Level Kansas City Center
Tue 10:04:28 PM 37.4306 -95.3811 196° South 381 438 36,000  Level Kansas City Center
Tue 10:05:32 PM 37.3269 -95.4139 194° South 383 441 36,000  Level Kansas City Center
Tue 10:06:33 PM 37.2047 -95.4558 195° South 380 437 36,000  Level Kansas City Center
Tue 10:07:34 PM 37.1028 -95.4889 195° South 377 434 36,000  Level Kansas City Center
Tue 10:08:32 PM 37.0014 -95.5222 195° South 376 433 36,000  Level Kansas City Center
Tue 10:09:36 PM 36.9003 -95.5564 195° South 377 434 36,000  Level Kansas City Center
Tue 10:10:38 PM 36.8006 -95.5900 195° South 374 430 36,000  Level Kansas City Center
Tue 10:11:36 PM 36.6992 -95.6233 195° South 375 432 36,000  Level Kansas City Center
Tue 10:12:38 PM 36.5992 -95.6578 195° South 375 432 36,000  Level Kansas City Center
Tue 10:13:40 PM 36.4972 -95.6892 194° South 376 433 36,000  Level Kansas City Center
Tue 10:14:42 PM 36.3869 -95.6819 177° South 405 466 36,000  Level Kansas City Center
Tue 10:15:43 PM 36.2736 -95.6539 169° South 413 475 36,000  Level Kansas City Center
Tue 10:16:44 PM 36.1597 -95.6281 170° South 415 478 36,000  Level Kansas City Center
Tue 10:17:45 PM 36.0292 -95.5986 170° South 415 478 36,000  Level Kansas City Center
Tue 10:18:46 PM 35.9164 -95.5711 169° South 415 478 36,000  Level Kansas City Center
Tue 10:19:48 PM 35.8011 -95.5494 171° South 416 479 36,000  Level Kansas City Center
Tue 10:20:50 PM 35.6883 -95.5447 178° South 407 468 36,000  Level Kansas City Center
Tue 10:21:43 PM 35.5717 -95.5406 178° South 408 470 36,000  Level Fort Worth Center
Tue 10:22:43 PM 35.4567 -95.5303 176° South 408 470 36,000  Level Fort Worth Center
Tue 10:23:43 PM 35.3397 -95.5203 176° South 413 475 36,000  Level Fort Worth Center
Tue 10:24:43 PM 35.2250 -95.5150 178° South 418 481 36,000  Level Fort Worth Center
Tue 10:25:43 PM 35.1103 -95.5050 176° South 423 487 36,000  Level Fort Worth Center
Tue 10:26:43 PM 34.9953 -95.4975 177° South 423 487 36,000 -400 Level Fort Worth Center
Tue 10:27:43 PM 34.8806 -95.4875 176° South 423 487 35,200 -900 Descending Fort Worth Center
Tue 10:28:43 PM 34.7658 -95.4850 179° South 423 487 34,200 -1,000 Descending Fort Worth Center
Tue 10:29:43 PM 34.6664 -95.5350 202° Southwest 399 459 33,200 -950 Descending Fort Worth Center
Tue 10:30:43 PM 34.5772 -95.5825 204° Southwest 392 451 32,300 -900 Descending Fort Worth Center
Tue 10:31:43 PM 34.4822 -95.6400 207° Southwest 392 451 31,400 -900 Descending Fort Worth Center
Tue 10:32:43 PM 34.3786 -95.7000 206° Southwest 399 459 30,500 -1,000 Descending Fort Worth Center
Tue 10:33:43 PM 34.2814 -95.7547 205° Southwest 399 459 29,400 -1,100 Descending Fort Worth Center
Tue 10:34:43 PM 34.1800 -95.8144 206° Southwest 399 459 28,300 3,300 Descending Fort Worth Center
Tue 10:35:43 PM 34.0783 -95.8714 205° Southwest 399 459 36,000 -3,750 Climbing Fort Worth Center
Tue 10:36:43 PM 33.9831 -95.9281 206° Southwest 379 436 20,800 -9,300 Descending Fort Worth Center
Tue 10:37:43 PM 33.8897 -95.9797 205° Southwest 374 430 17,400 -3,150 Descending Fort Worth Center
Tue 10:38:43 PM 33.8047 -96.0286 206° Southwest 359 413 14,500 -3,100 Descending Fort Worth Center
Tue 10:39:43 PM 33.7239 -96.0722 204° Southwest 330 380 11,200 -2,300 Descending Fort Worth Center
Tue 10:40:43 PM 33.6408 -96.1211 206° Southwest 330 380 9,900 -600 Descending Fort Worth Center
Tue 10:41:43 PM 33.5536 -96.1697 205° Southwest 341 392 10,000  Climbing Fort Worth Center
Tue 10:42:43 PM 33.4686 -96.2181 205° Southwest 341 392 9,900 -50 Descending Fort Worth Center
Tue 10:43:43 PM 33.3833 -96.2667 205° Southwest 341 392 9,900  Level Fort Worth Center
Tue 10:44:43 PM 33.3150 -96.3047 205° Southwest 303 349 9,900 -500 Level Fort Worth Center
Tue 10:45:43 PM 33.2589 -96.3428 210° Southwest 264 304 8,900 -1,350 Descending Fort Worth Center
Tue 10:46:43 PM 33.2094 -96.4128 230° Southwest 256 295 7,200 -1,550 Descending Fort Worth Center
Tue 10:47:43 PM 33.1511 -96.4383 200° South 251 289 5,800 -1,600 Descending Fort Worth Center
Tue 10:48:43 PM 33.0803 -96.4664 198° South 251 289 4,000 -900 Descending Fort Worth Center
Tue 10:49:43 PM 33.0200 -96.4894 198° South 251 289 4,000 -50 Level Fort Worth Center
Tue 10:50:43 PM 32.9472 -96.5297 205° Southwest 256 295 3,900  Descending Fort Worth Center
Tue 10:51:43 PM 32.8953 -96.5697 213° Southwest 256 295 4,000  Climbing Fort Worth Center
Tue 10:52:43 PM 32.8308 -96.6222 214° Southwest 256 295 3,900 -150 Descending Fort Worth Center
Tue 10:53:43 PM 32.7811 -96.6597 212° Southwest 239 275 3,700 -700 Descending Fort Worth Center
Tue 10:54:43 PM 32.7333 -96.7000 215° Southwest 208 239 2,500 -571 Descending Dallas / Fort Worth TRACON
Tue 10:55:49 PM 32.7667 -96.7500 308° West 180 207 2,500 -283 Level Dallas / Fort Worth TRACON
Tue 10:56:50 PM 32.7833 -96.7833 301° West 131 151 1,900 -645 Descending Dallas / Fort Worth TRACON
Tue 10:57:50 PM 32.8167 -96.8167 320° Northwest 104 120 1,200 -700 Descending Dallas / Fort Worth TRACON
Tue 10:59:00 PM 32.8333 -96.8500 258° West  Level FlightAware Approximate
Tue 11:06:00 PM 32.8471 -96.8518 258° West  Level Estimated
Tue 11:07:00 PM 32.8471 -96.8518 258° West  Level Estimated

Login

Don't have an account? Register now (free) for customized features, flight alerts, and more!